Time;durP1;ratioP1;P1;durP2;ratioP2;P2;SDS_P1;SDS_P2;PMS_P1;PMS_P2;Temp;Humidity;BMP_temperature;BMP_pressure;BME280_temperature;BME280_humidity;BME280_pressure;Samples;Min_cycle;Max_cycle;Signal;HPM_P1;HPM_P2
2022/03/18 00:02:22;;;;;;;2.20;2.10;;;3.20;88.40;;;;;;5009002;28;20611;-71
2022/03/18 00:04:49;;;;;;;1.53;1.43;;;3.20;88.40;;;;;;5012693;28;20193;-69
2022/03/18 00:07:16;;;;;;;1.50;1.50;;;3.20;88.30;;;;;;5010656;28;20192;-70
2022/03/18 00:09:42;;;;;;;1.60;1.60;;;3.20;88.20;;;;;;5011807;28;20215;-70
2022/03/18 00:12:12;;;;;;;1.57;1.50;;;3.20;88.00;;;;;;5016969;28;20213;-70
2022/03/18 00:14:39;;;;;;;1.97;1.63;;;3.20;87.80;;;;;;5015810;28;20200;-70
2022/03/18 00:17:06;;;;;;;1.87;1.77;;;3.20;87.60;;;;;;5012365;28;20670;-70
2022/03/18 00:19:33;;;;;;;3.03;2.17;;;3.20;87.30;;;;;;5009394;28;20185;-71
2022/03/18 00:22:01;;;;;;;2.53;2.33;;;3.20;87.20;;;;;;5006156;28;21163;-71
2022/03/18 00:24:27;;;;;;;1.90;1.80;;;3.10;87.30;;;;;;5008020;28;20263;-71
2022/03/18 00:26:53;;;;;;;3.33;2.70;;;3.10;87.00;;;;;;5012762;28;20216;-71
2022/03/18 00:29:19;;;;;;;2.30;2.13;;;3.10;87.00;;;;;;5012782;28;20217;-71
2022/03/18 00:31:45;;;;;;;2.47;2.30;;;3.00;87.00;;;;;;5007218;28;20176;-70
2022/03/18 00:34:10;;;;;;;2.17;2.07;;;3.10;87.10;;;;;;5004203;28;20196;-71
2022/03/18 00:36:37;;;;;;;3.17;2.20;;;3.10;87.20;;;;;;5005055;28;20212;-71
2022/03/18 00:39:03;;;;;;;3.90;2.73;;;3.10;87.20;;;;;;5015049;28;20181;-71
2022/03/18 00:41:30;;;;;;;2.50;2.30;;;3.10;87.40;;;;;;5015976;28;20180;-71
2022/03/18 00:43:56;;;;;;;4.67;2.93;;;3.10;87.50;;;;;;5009835;28;20185;-70
2022/03/18 00:46:23;;;;;;;3.17;2.87;;;3.00;87.00;;;;;;5011181;28;20254;-71
2022/03/18 00:54:18;;;;;;;3.63;3.03;;;3.00;87.00;;;;;;5013456;28;20188;-70
2022/03/18 00:56:43;;;;;;;2.87;2.67;;;3.00;86.90;;;;;;5006377;28;20209;-71
2022/03/18 00:59:10;;;;;;;3.20;2.87;;;3.00;86.90;;;;;;5014554;28;20246;-70
2022/03/18 01:01:35;;;;;;;3.13;2.87;;;3.00;86.80;;;;;;5014637;28;20169;-70
2022/03/18 01:04:02;;;;;;;3.43;2.67;;;3.00;86.80;;;;;;5010988;28;20259;-71
2022/03/18 01:06:28;;;;;;;3.50;3.20;;;3.00;86.90;;;;;;5011016;28;20235;-71
2022/03/18 01:08:53;;;;;;;3.53;2.57;;;3.00;86.80;;;;;;5011021;28;20212;-71
2022/03/18 01:11:20;;;;;;;4.30;2.87;;;3.00;86.90;;;;;;5011719;28;20283;-71
2022/03/18 01:13:45;;;;;;;4.30;3.00;;;3.00;86.90;;;;;;5015250;28;20181;-71
2022/03/18 01:16:11;;;;;;;5.03;2.93;;;3.00;86.80;;;;;;5011942;28;20253;-70
2022/03/18 01:18:37;;;;;;;3.10;2.67;;;3.00;86.80;;;;;;5016181;28;20182;-70
2022/03/18 01:21:03;;;;;;;3.27;2.70;;;3.00;86.80;;;;;;5013571;28;20748;-70
2022/03/18 01:23:29;;;;;;;4.40;3.30;;;2.90;87.00;;;;;;5015419;28;20264;-71
2022/03/18 01:25:55;;;;;;;3.40;2.77;;;2.90;87.10;;;;;;5020029;28;20261;-71
2022/03/18 01:28:22;;;;;;;4.10;2.80;;;2.90;87.00;;;;;;5015183;28;20580;-71
2022/03/18 01:30:48;;;;;;;4.77;3.10;;;2.80;87.20;;;;;;5011570;28;20176;-71
2022/03/18 01:33:14;;;;;;;2.70;2.50;;;2.80;87.30;;;;;;5016424;28;20234;-70
2022/03/18 01:35:40;;;;;;;3.37;3.07;;;2.80;87.40;;;;;;5009811;28;20188;-71
2022/03/18 01:38:05;;;;;;;2.63;2.53;;;2.90;87.40;;;;;;5017814;28;20728;-70
2022/03/18 01:40:31;;;;;;;2.83;2.63;;;2.90;87.40;;;;;;5017637;28;20181;-71
2022/03/18 01:42:57;;;;;;;3.40;3.10;;;2.90;87.30;;;;;;5013432;28;20181;-72
2022/03/18 01:45:24;;;;;;;4.07;2.93;;;2.80;86.70;;;;;;5009444;28;20192;-71
2022/03/18 01:47:50;;;;;;;5.73;3.07;;;2.80;86.00;;;;;;5014927;28;20243;-71
2022/03/18 01:50:16;;;;;;;5.67;2.63;;;2.80;85.70;;;;;;5017162;28;20265;-72
2022/03/18 01:52:44;;;;;;;2.90;2.70;;;2.80;85.30;;;;;;5012882;28;20260;-71
2022/03/18 01:55:10;;;;;;;2.93;2.77;;;2.80;85.20;;;;;;5013056;28;20207;-71
2022/03/18 01:57:36;;;;;;;5.23;2.63;;;2.80;85.10;;;;;;5012493;28;20319;-71
2022/03/18 02:00:04;;;;;;;3.10;2.30;;;2.80;84.80;;;;;;5015948;28;20184;-71
2022/03/18 02:02:31;;;;;;;2.00;1.90;;;2.80;84.60;;;;;;5006643;28;20181;-70
2022/03/18 02:04:57;;;;;;;2.63;2.43;;;2.80;84.30;;;;;;5014520;28;20178;-71
2022/03/18 02:07:24;;;;;;;3.23;2.57;;;2.80;83.90;;;;;;5013158;28;20210;-70
2022/03/18 02:09:49;;;;;;;2.30;1.90;;;2.80;83.90;;;;;;5008650;28;20183;-70
2022/03/18 02:12:15;;;;;;;2.77;2.43;;;2.70;83.80;;;;;;5012125;28;20267;-70
2022/03/18 02:14:43;;;;;;;2.67;2.27;;;2.70;83.70;;;;;;5015870;28;20849;-70
2022/03/18 02:17:14;;;;;;;2.10;1.97;;;2.70;83.50;;;;;;5014729;28;21194;-70
2022/03/18 02:19:41;;;;;;;2.83;2.43;;;2.70;83.40;;;;;;5011016;28;20276;-71
2022/03/18 02:22:22;;;;;;;3.47;3.07;;;2.60;83.30;;;;;;5010674;28;20542;-70
2022/03/18 02:24:50;;;;;;;2.70;2.50;;;2.60;83.50;;;;;;5014674;28;20189;-70
2022/03/18 02:27:16;;;;;;;6.13;2.50;;;2.60;83.90;;;;;;5019051;28;20184;-71
2022/03/18 02:29:43;;;;;;;2.87;2.30;;;2.60;84.00;;;;;;5011308;28;20196;-70
2022/03/18 02:32:10;;;;;;;2.67;2.53;;;2.60;84.30;;;;;;5011299;28;20182;-71
2022/03/18 02:34:37;;;;;;;5.30;3.20;;;2.60;84.80;;;;;;5014624;28;20184;-70
2022/03/18 02:37:03;;;;;;;3.40;3.10;;;2.60;85.10;;;;;;5014982;28;20717;-71
2022/03/18 02:39:29;;;;;;;2.53;2.33;;;2.60;85.40;;;;;;5011826;28;20707;-71
2022/03/18 02:41:55;;;;;;;3.13;2.90;;;2.60;85.70;;;;;;5011438;28;20184;-70
2022/03/18 02:44:21;;;;;;;2.87;2.67;;;2.50;86.00;;;;;;5011092;28;20189;-71
2022/03/18 02:46:47;;;;;;;3.43;3.13;;;2.50;86.20;;;;;;5009763;28;20211;-71
2022/03/18 02:49:14;;;;;;;3.47;3.10;;;2.50;86.60;;;;;;5012877;28;20185;-71
2022/03/18 02:51:40;;;;;;;2.90;2.70;;;2.50;86.70;;;;;;5008267;28;20195;-72
2022/03/18 02:54:06;;;;;;;3.47;2.57;;;2.50;86.80;;;;;;5015699;28;20176;-71
2022/03/18 02:56:33;;;;;;;5.27;3.10;;;2.40;86.80;;;;;;5019976;28;20219;-71
2022/03/18 02:59:00;;;;;;;3.40;3.10;;;2.40;87.00;;;;;;5013030;28;20262;-71
2022/03/18 03:01:27;;;;;;;4.23;3.23;;;2.40;87.00;;;;;;5011129;28;20182;-70
2022/03/18 03:03:53;;;;;;;3.30;3.07;;;2.30;86.90;;;;;;5015415;28;20177;-70
2022/03/18 03:09:03;;;;;;;2.63;2.43;;;2.20;87.10;;;;;;5008116;28;20192;-70
2022/03/18 03:11:29;;;;;;;2.57;2.47;;;2.10;87.10;;;;;;5013633;28;20665;-70
2022/03/18 03:13:55;;;;;;;3.20;2.90;;;2.10;87.20;;;;;;5006765;28;20279;-71
2022/03/18 03:16:21;;;;;;;4.10;3.67;;;2.10;87.20;;;;;;5008439;28;20217;-71
2022/03/18 03:18:47;;;;;;;3.23;3.03;;;2.00;87.30;;;;;;5018916;28;20246;-71
2022/03/18 03:21:16;;;;;;;3.67;3.37;;;2.00;87.50;;;;;;5011708;28;20177;-71
2022/03/18 03:23:42;;;;;;;3.50;3.27;;;1.90;87.50;;;;;;5014257;28;20177;-70
2022/03/18 03:26:08;;;;;;;3.17;2.97;;;1.90;87.60;;;;;;5011054;28;20228;-71
2022/03/18 03:28:34;;;;;;;3.80;3.30;;;1.80;87.80;;;;;;5008828;28;20661;-70
2022/03/18 03:31:00;;;;;;;3.13;2.90;;;1.80;87.90;;;;;;5009577;28;20689;-70
2022/03/18 03:33:26;;;;;;;3.23;2.93;;;1.80;88.30;;;;;;5014480;28;20185;-71
2022/03/18 03:35:53;;;;;;;4.10;3.00;;;1.80;88.30;;;;;;5013117;28;20209;-69
2022/03/18 03:38:21;;;;;;;3.50;3.20;;;1.80;88.10;;;;;;5011530;28;20216;-70
2022/03/18 03:40:48;;;;;;;4.10;3.73;;;1.80;88.00;;;;;;5012483;28;20204;-70
2022/03/18 03:43:14;;;;;;;3.30;3.10;;;1.80;88.00;;;;;;5011289;28;20172;-70
2022/03/18 03:45:40;;;;;;;3.43;3.23;;;1.80;88.00;;;;;;5012179;28;20195;-70
2022/03/18 03:48:07;;;;;;;3.13;2.90;;;1.80;88.00;;;;;;5009645;28;20185;-70
2022/03/18 03:50:33;;;;;;;3.83;3.43;;;1.80;88.00;;;;;;5014306;28;20256;-71
2022/03/18 03:53:00;;;;;;;3.27;2.87;;;1.80;88.10;;;;;;5009281;28;20180;-70
2022/03/18 03:55:26;;;;;;;3.70;3.40;;;1.80;88.00;;;;;;5011656;28;20650;-72
2022/03/18 03:57:52;;;;;;;3.37;3.17;;;1.80;87.90;;;;;;5008521;28;20631;-70
2022/03/18 04:00:18;;;;;;;4.00;2.90;;;1.80;87.80;;;;;;5006580;28;20177;-70
2022/03/18 04:02:43;;;;;;;3.47;3.17;;;1.80;87.70;;;;;;5008665;28;20186;-70
2022/03/18 04:05:10;;;;;;;3.17;2.93;;;1.80;87.70;;;;;;5015412;28;20191;-69
2022/03/18 04:07:37;;;;;;;2.70;2.43;;;1.80;87.60;;;;;;5009626;28;20690;-70
2022/03/18 04:10:04;;;;;;;2.70;2.50;;;1.70;87.50;;;;;;5011440;28;20567;-70
2022/03/18 04:12:32;;;;;;;3.37;3.07;;;1.70;87.40;;;;;;5018763;28;20814;-70
2022/03/18 04:14:59;;;;;;;2.57;2.37;;;1.80;87.40;;;;;;5007156;28;20212;-71
2022/03/18 04:17:39;;;;;;;2.23;2.13;;;1.80;87.30;;;;;;5011858;28;20217;-71
2022/03/18 04:20:06;;;;;;;3.27;2.57;;;1.80;87.10;;;;;;5015343;28;20263;-72
2022/03/18 04:22:32;;;;;;;3.10;2.80;;;1.80;87.10;;;;;;5010429;28;20189;-71
2022/03/18 04:24:57;;;;;;;2.60;2.50;;;1.80;86.70;;;;;;5008261;28;20196;-71
2022/03/18 04:27:23;;;;;;;2.77;2.67;;;1.70;86.80;;;;;;5007136;28;20196;-71
2022/03/18 04:29:49;;;;;;;2.63;2.53;;;1.60;86.70;;;;;;5011531;28;20544;-71
2022/03/18 04:32:15;;;;;;;3.03;2.80;;;1.60;86.80;;;;;;5004670;28;20196;-71
2022/03/18 04:34:40;;;;;;;2.93;2.83;;;1.60;86.90;;;;;;5007595;28;21363;-71
2022/03/18 04:37:06;;;;;;;3.13;2.57;;;1.60;86.90;;;;;;5009437;28;20295;-70
2022/03/18 04:39:33;;;;;;;2.30;2.17;;;1.70;86.80;;;;;;5005551;28;20765;-70
2022/03/18 04:41:58;;;;;;;2.80;2.60;;;1.70;86.70;;;;;;5003575;28;20193;-71
2022/03/18 04:44:27;;;;;;;2.03;1.93;;;1.70;86.50;;;;;;5012082;28;20204;-72
2022/03/18 04:46:53;;;;;;;2.27;2.07;;;1.70;86.40;;;;;;5011142;28;20188;-71
2022/03/18 04:49:25;;;;;;;5.57;2.53;;;1.70;86.30;;;;;;5003648;28;20192;-70
2022/03/18 04:51:50;;;;;;;1.93;1.70;;;1.70;86.20;;;;;;5015184;28;20184;-70
2022/03/18 04:54:16;;;;;;;2.73;2.03;;;1.70;86.10;;;;;;5013841;28;20188;-70
2022/03/18 04:59:26;;;;;;;3.27;2.97;;;1.80;86.20;;;;;;5010497;28;20246;-70
2022/03/18 05:01:52;;;;;;;2.30;2.10;;;1.80;86.10;;;;;;5008294;28;20209;-70
2022/03/18 05:04:17;;;;;;;3.53;2.03;;;1.80;86.00;;;;;;5013359;28;20181;-70
2022/03/18 05:06:43;;;;;;;2.47;2.37;;;1.80;85.90;;;;;;5010985;28;20208;-71
2022/03/18 05:09:09;;;;;;;2.60;2.30;;;1.80;85.90;;;;;;5010086;28;20678;-70
2022/03/18 05:11:35;;;;;;;2.33;2.23;;;1.90;85.70;;;;;;5013448;28;20192;-70
2022/03/18 05:14:01;;;;;;;4.80;2.47;;;1.90;85.60;;;;;;5010174;28;20177;-70
2022/03/18 05:16:27;;;;;;;2.13;2.07;;;1.90;85.50;;;;;;5015068;28;20614;-70
2022/03/18 05:18:52;;;;;;;2.73;2.53;;;2.00;85.60;;;;;;5016249;28;20191;-69
2022/03/18 05:21:19;;;;;;;2.43;2.23;;;2.00;85.60;;;;;;5015473;28;20195;-69
2022/03/18 05:23:46;;;;;;;4.67;2.80;;;2.00;85.50;;;;;;5014276;28;20689;-70
2022/03/18 05:26:12;;;;;;;2.83;2.63;;;2.00;85.40;;;;;;5014194;28;20181;-70
2022/03/18 05:28:38;;;;;;;3.03;2.83;;;1.90;84.80;;;;;;5017622;28;20191;-70
2022/03/18 05:31:04;;;;;;;2.87;2.67;;;1.80;84.80;;;;;;5015114;28;20189;-69
2022/03/18 05:33:29;;;;;;;7.03;3.00;;;1.70;84.90;;;;;;5011082;28;20189;-69
2022/03/18 05:35:55;;;;;;;2.93;2.47;;;1.70;85.10;;;;;;5011473;28;20191;-69
2022/03/18 05:38:21;;;;;;;2.17;2.07;;;1.60;85.20;;;;;;5014395;28;20220;-70
2022/03/18 05:40:47;;;;;;;3.17;2.97;;;1.60;85.20;;;;;;5011075;28;20227;-69
2022/03/18 05:43:13;;;;;;;2.70;2.60;;;1.60;85.10;;;;;;5014120;28;20287;-70
2022/03/18 05:45:39;;;;;;;2.43;2.23;;;1.60;85.30;;;;;;5008027;28;20727;-71
2022/03/18 05:48:06;;;;;;;3.37;3.07;;;1.60;85.30;;;;;;5015561;28;20195;-71
2022/03/18 05:50:33;;;;;;;2.23;2.13;;;1.50;84.70;;;;;;5010457;28;20185;-69
2022/03/18 05:52:59;;;;;;;1.90;1.80;;;1.50;84.70;;;;;;5010749;28;20227;-71
2022/03/18 05:55:26;;;;;;;3.07;2.87;;;1.40;84.80;;;;;;5008969;28;20283;-71
2022/03/18 05:57:55;;;;;;;2.17;2.07;;;1.40;84.70;;;;;;5008000;28;20215;-69
2022/03/18 06:00:21;;;;;;;2.33;2.23;;;1.40;84.80;;;;;;5014011;28;20619;-70
2022/03/18 06:02:47;;;;;;;2.40;2.30;;;1.30;84.90;;;;;;5012879;28;20185;-70
2022/03/18 06:05:12;;;;;;;2.07;1.97;;;1.30;85.00;;;;;;5012894;28;20876;-70
2022/03/18 06:07:39;;;;;;;1.97;1.87;;;1.40;84.70;;;;;;5012424;28;20192;-70
2022/03/18 06:12:49;;;;;;;2.57;2.37;;;1.50;84.10;;;;;;5015521;28;20188;-70
2022/03/18 06:15:15;;;;;;;4.37;2.27;;;1.50;83.80;;;;;;5014228;28;20188;-71
2022/03/18 06:17:41;;;;;;;1.50;1.50;;;1.50;83.80;;;;;;5001173;28;20208;-70
2022/03/18 06:20:07;;;;;;;2.00;1.90;;;1.60;84.10;;;;;;5012130;28;20189;-70
2022/03/18 06:22:33;;;;;;;2.00;1.90;;;1.70;83.60;;;;;;5014036;28;20276;-70
2022/03/18 06:24:58;;;;;;;2.57;2.37;;;1.80;83.60;;;;;;5011818;28;20266;-70
2022/03/18 06:27:24;;;;;;;3.43;2.53;;;1.90;83.40;;;;;;5008461;28;20210;-70
2022/03/18 06:29:51;;;;;;;2.77;2.53;;;2.00;83.60;;;;;;5012554;28;20177;-68
2022/03/18 06:32:17;;;;;;;2.33;2.20;;;2.10;83.50;;;;;;5014447;28;22141;-69
2022/03/18 06:34:43;;;;;;;3.43;2.20;;;2.20;83.40;;;;;;5010093;28;20212;-67
2022/03/18 06:37:09;;;;;;;2.40;2.20;;;2.40;83.20;;;;;;4998120;28;20240;-69
2022/03/18 06:39:35;;;;;;;2.07;1.97;;;2.50;83.10;;;;;;5009337;28;20215;-69
2022/03/18 06:42:02;;;;;;;3.03;2.70;;;2.60;82.70;;;;;;5005270;28;20183;-69
2022/03/18 06:44:28;;;;;;;2.80;2.60;;;2.60;82.50;;;;;;5012008;28;20239;-69
2022/03/18 06:46:53;;;;;;;2.87;2.77;;;2.70;82.10;;;;;;5010801;28;20824;-68
2022/03/18 06:49:19;;;;;;;3.57;2.80;;;2.80;82.10;;;;;;5012178;28;20231;-68
2022/03/18 06:51:45;;;;;;;3.30;2.83;;;2.80;81.70;;;;;;5009208;28;20658;-69
2022/03/18 06:54:12;;;;;;;3.17;2.40;;;2.70;81.30;;;;;;5004966;28;20180;-69
2022/03/18 06:56:38;;;;;;;5.60;2.50;;;2.70;79.90;;;;;;5004544;28;20315;-69
2022/03/18 06:59:04;;;;;;;2.60;2.50;;;2.60;80.40;;;;;;5011111;28;20183;-72
2022/03/18 07:01:30;;;;;;;2.50;2.17;;;2.70;80.40;;;;;;5007459;28;20177;-71
2022/03/18 07:03:56;;;;;;;2.30;2.20;;;2.70;80.10;;;;;;5011977;28;20320;-71
2022/03/18 07:06:21;;;;;;;2.57;2.40;;;2.70;78.90;;;;;;5007889;28;20275;-69
2022/03/18 07:08:47;;;;;;;2.50;2.40;;;2.80;79.00;;;;;;5009701;28;20309;-69
2022/03/18 07:11:13;;;;;;;2.40;2.30;;;2.90;78.60;;;;;;5007292;28;20843;-69
2022/03/18 07:13:45;;;;;;;2.33;2.20;;;3.00;78.50;;;;;;5006272;28;20180;-69
2022/03/18 07:18:55;;;;;;;2.27;2.10;;;3.10;78.00;;;;;;5011424;28;20246;-69
2022/03/18 07:21:22;;;;;;;5.03;2.43;;;3.00;77.30;;;;;;5008345;28;20184;-71
2022/03/18 07:23:48;;;;;;;2.80;2.60;;;3.00;77.10;;;;;;5010415;28;20184;-69
2022/03/18 07:26:13;;;;;;;3.23;2.97;;;3.00;76.40;;;;;;5005557;28;20191;-69
2022/03/18 07:28:39;;;;;;;2.33;1.97;;;3.00;74.90;;;;;;5007828;28;20194;-68
2022/03/18 07:31:05;;;;;;;1.93;1.90;;;2.90;74.50;;;;;;5008142;28;20547;-70
2022/03/18 07:33:30;;;;;;;2.63;2.23;;;2.90;74.90;;;;;;5013419;28;20250;-71
2022/03/18 07:35:56;;;;;;;9.60;2.63;;;3.00;74.30;;;;;;5008436;28;20192;-70
2022/03/18 07:38:22;;;;;;;2.67;2.27;;;3.00;74.80;;;;;;5004679;28;20227;-68
2022/03/18 07:40:48;;;;;;;2.40;2.27;;;3.10;74.10;;;;;;5008249;28;20188;-67
2022/03/18 07:43:14;;;;;;;2.17;2.03;;;3.10;73.80;;;;;;5011146;28;20185;-69
2022/03/18 07:45:40;;;;;;;2.17;1.97;;;3.10;73.50;;;;;;5010234;28;20204;-68
2022/03/18 07:48:08;;;;;;;2.30;2.20;;;3.10;73.80;;;;;;5006994;28;20184;-69
2022/03/18 07:50:35;;;;;;;2.17;2.07;;;3.30;73.40;;;;;;5008621;28;20182;-69
2022/03/18 07:53:04;;;;;;;2.37;2.23;;;3.40;73.70;;;;;;5009666;28;20232;-68
2022/03/18 07:55:31;;;;;;;5.43;2.27;;;3.40;73.20;;;;;;5008099;28;20184;-69
2022/03/18 07:57:58;;;;;;;2.20;2.10;;;3.30;72.50;;;;;;5009081;28;20315;-70
2022/03/18 08:00:24;;;;;;;3.77;2.30;;;3.20;71.70;;;;;;5008402;28;20192;-69
2022/03/18 08:02:52;;;;;;;2.37;2.27;;;3.30;73.40;;;;;;5009417;28;20177;-69
2022/03/18 08:05:19;;;;;;;2.20;2.10;;;3.40;74.20;;;;;;5008775;28;20196;-69
2022/03/18 08:07:46;;;;;;;3.10;2.90;;;3.70;74.10;;;;;;5011312;28;20204;-69
2022/03/18 08:10:13;;;;;;;2.80;2.60;;;3.70;71.70;;;;;;5005181;28;20641;-69
2022/03/18 08:12:41;;;;;;;3.17;2.63;;;3.70;70.50;;;;;;5009096;28;20188;-69
2022/03/18 08:15:11;;;;;;;2.50;2.30;;;3.80;71.30;;;;;;5000326;28;20703;-69
2022/03/18 08:17:38;;;;;;;2.60;2.40;;;4.00;72.20;;;;;;5005814;28;20293;-69
2022/03/18 08:20:08;;;;;;;2.53;2.30;;;4.30;71.00;;;;;;5004723;28;20185;-69
2022/03/18 08:22:35;;;;;;;2.40;2.30;;;4.50;69.90;;;;;;5002574;28;20172;-69
2022/03/18 08:25:01;;;;;;;2.63;2.37;;;4.90;69.70;;;;;;5011191;28;20184;-69
2022/03/18 08:27:27;;;;;;;3.43;3.17;;;5.30;69.00;;;;;;5006692;28;20188;-69
2022/03/18 08:29:57;;;;;;;3.37;2.43;;;5.60;67.80;;;;;;5010850;28;20185;-70
2022/03/18 08:32:28;;;;;;;2.77;2.57;;;6.20;68.40;;;;;;5010006;28;20608;-68
2022/03/18 08:34:55;;;;;;;3.13;2.93;;;7.00;67.60;;;;;;5013420;28;20192;-68
2022/03/18 08:37:56;;;;;;;2.97;2.77;;;7.80;65.60;;;;;;5008593;28;20638;-69
2022/03/18 08:40:07;;;;;;;3.50;3.20;;;8.40;64.10;;;;;;5007492;28;20308;-68
2022/03/18 08:42:34;;;;;;;3.07;2.87;;;8.90;60.70;;;;;;5007356;28;21386;-70
2022/03/18 08:45:01;;;;;;;7.53;3.17;;;8.90;59.00;;;;;;5008007;28;20195;-68
2022/03/18 08:47:27;;;;;;;5.17;3.10;;;8.70;59.00;;;;;;5007762;28;20197;-69
2022/03/18 08:49:53;;;;;;;4.40;3.03;;;8.30;59.00;;;;;;5008175;28;20663;-69
2022/03/18 08:52:18;;;;;;;2.37;2.27;;;8.10;59.20;;;;;;5011682;28;20192;-68
2022/03/18 08:54:44;;;;;;;3.33;2.97;;;8.30;59.80;;;;;;5007629;28;20189;-68
2022/03/18 08:57:10;;;;;;;3.03;2.83;;;8.30;59.80;;;;;;5008578;28;20760;-69
2022/03/18 08:59:36;;;;;;;5.73;2.73;;;8.20;60.10;;;;;;5004639;28;20185;-70
2022/03/18 09:02:02;;;;;;;2.50;2.40;;;8.20;58.20;;;;;;5006760;28;20184;-70
2022/03/18 09:04:27;;;;;;;3.07;2.87;;;8.60;59.80;;;;;;5010714;28;20177;-69
2022/03/18 09:06:54;;;;;;;3.57;3.27;;;9.10;59.30;;;;;;5005775;28;20193;-70
2022/03/18 09:09:19;;;;;;;3.40;3.20;;;9.80;58.10;;;;;;5003737;28;20268;-69
2022/03/18 09:11:45;;;;;;;2.40;2.20;;;10.50;58.20;;;;;;5005004;28;20177;-69
2022/03/18 09:14:12;;;;;;;2.70;2.60;;;11.30;56.20;;;;;;5009098;28;20643;-69
2022/03/18 09:16:38;;;;;;;3.37;3.17;;;11.90;53.70;;;;;;5008947;28;20831;-70
2022/03/18 09:19:07;;;;;;;3.10;2.80;;;12.50;55.60;;;;;;5010470;28;20690;-69
2022/03/18 09:21:33;;;;;;;3.10;3.00;;;13.10;53.60;;;;;;5010379;28;20671;-69
2022/03/18 09:23:59;;;;;;;3.10;2.90;;;13.50;53.20;;;;;;5006746;28;20359;-68
2022/03/18 09:26:25;;;;;;;3.97;3.78;;;14.10;53.20;;;;;;5011196;28;20297;-67
2022/03/18 09:28:50;;;;;;;3.38;3.22;;;14.50;51.10;;;;;;5007990;28;20199;-68
2022/03/18 09:31:16;;;;;;;4.57;3.58;;;13.60;48.90;;;;;;5009757;28;20196;-68
2022/03/18 09:33:42;;;;;;;3.35;3.15;;;11.90;48.10;;;;;;5010026;28;20185;-68
2022/03/18 09:36:11;;;;;;;3.88;3.47;;;10.80;50.60;;;;;;5003993;28;20193;-68
2022/03/18 09:38:37;;;;;;;3.38;3.05;;;10.10;52.70;;;;;;5007807;28;20255;-68
2022/03/18 09:41:05;;;;;;;3.45;3.25;;;10.00;54.10;;;;;;5009342;28;20184;-69
2022/03/18 09:43:39;;;;;;;5.40;3.50;;;10.40;55.50;;;;;;5004837;28;20199;-69
2022/03/18 09:46:08;;;;;;;3.28;3.00;;;11.10;55.00;;;;;;5002517;28;20177;-68
2022/03/18 09:48:34;;;;;;;3.08;2.97;;;11.90;53.60;;;;;;5003640;28;20212;-68
2022/03/18 09:51:00;;;;;;;3.42;3.22;;;12.00;51.30;;;;;;5009050;28;20204;-68
2022/03/18 09:53:26;;;;;;;3.47;3.17;;;12.20;52.10;;;;;;5012960;28;20210;-71
2022/03/18 09:55:52;;;;;;;3.05;2.95;;;12.70;51.80;;;;;;5009218;28;20637;-68
2022/03/18 09:58:19;;;;;;;3.60;3.30;;;12.70;49.70;;;;;;5006421;28;20671;-68
2022/03/18 10:00:51;;;;;;;3.35;3.13;;;12.90;50.20;;;;;;5009452;28;20177;-70
2022/03/18 10:03:21;;;;;;;4.07;3.60;;;12.90;48.80;;;;;;5005754;28;20192;-70
2022/03/18 10:05:59;;;;;;;4.35;3.50;;;12.10;48.30;;;;;;5008967;28;20207;-69
2022/03/18 10:08:47;;;;;;;4.18;3.58;;;11.90;50.30;;;;;;5007715;28;20191;-69
2022/03/18 10:11:27;;;;;;;3.75;3.53;;;12.10;49.60;;;;;;5005777;28;20227;-69
2022/03/18 10:13:58;;;;;;;3.17;2.80;;;11.50;49.00;;;;;;5007841;28;20258;-69
2022/03/18 10:16:37;;;;;;;5.03;4.07;;;11.30;50.80;;;;;;5011141;28;20185;-69
2022/03/18 10:19:12;;;;;;;3.25;3.05;;;11.10;51.00;;;;;;5007581;28;20189;-69
2022/03/18 10:21:59;;;;;;;3.60;3.40;;;11.10;51.90;;;;;;5008830;28;20207;-69
2022/03/18 10:24:34;;;;;;;3.30;3.20;;;10.70;50.10;;;;;;5006211;28;20185;-70
2022/03/18 10:27:21;;;;;;;3.13;2.92;;;10.60;51.40;;;;;;5005529;28;20181;-70
2022/03/18 10:29:53;;;;;;;3.78;3.58;;;10.50;51.70;;;;;;5008909;28;20371;-69
2022/03/18 10:32:22;;;;;;;3.58;3.38;;;10.50;51.90;;;;;;5005990;28;20189;-69
2022/03/18 10:37:42;;;;;;;3.65;3.33;;;10.90;53.10;;;;;;5004683;28;20290;-70
2022/03/18 10:40:08;;;;;;;4.75;4.38;;;11.10;52.90;;;;;;5006958;28;21663;-71
2022/03/18 10:42:34;;;;;;;3.63;3.42;;;11.10;52.60;;;;;;5008003;28;20193;-70
2022/03/18 10:45:01;;;;;;;3.72;3.53;;;11.20;53.20;;;;;;5003733;28;20247;-70
2022/03/18 10:47:32;;;;;;;4.18;3.78;;;11.50;53.00;;;;;;5004899;28;20195;-69
2022/03/18 10:50:11;;;;;;;4.17;3.87;;;11.60;52.90;;;;;;5002314;28;20177;-70
2022/03/18 10:52:37;;;;;;;4.05;3.72;;;11.50;52.10;;;;;;5008890;28;20188;-68
2022/03/18 10:55:18;;;;;;;4.10;3.90;;;11.30;51.50;;;;;;5005215;28;20193;-68
2022/03/18 10:57:55;;;;;;;3.72;3.42;;;11.20;51.90;;;;;;5008286;28;20978;-70
2022/03/18 11:00:23;;;;;;;3.42;3.25;;;11.70;53.00;;;;;;5007019;28;20199;-69
2022/03/18 11:02:52;;;;;;;3.10;2.90;;;12.60;51.80;;;;;;5010084;28;20254;-69
2022/03/18 11:05:21;;;;;;;3.78;3.55;;;13.30;50.20;;;;;;5006978;28;20580;-70
2022/03/18 11:07:51;;;;;;;4.05;3.75;;;13.60;48.60;;;;;;5007898;28;20185;-69
2022/03/18 11:13:07;;;;;;;3.40;3.20;;;13.40;46.50;;;;;;5003355;28;20902;-69
2022/03/18 11:15:36;;;;;;;3.70;3.20;;;13.20;47.30;;;;;;5005104;28;20860;-69
2022/03/18 11:18:03;;;;;;;3.22;3.03;;;13.50;49.20;;;;;;5003995;28;20229;-70
2022/03/18 11:20:33;;;;;;;4.35;3.83;;;14.30;49.10;;;;;;5004487;28;20181;-70
2022/03/18 11:22:59;;;;;;;3.10;2.90;;;15.30;47.30;;;;;;5008036;28;20282;-70
2022/03/18 11:25:28;;;;;;;3.75;3.55;;;16.30;46.40;;;;;;5014934;28;20193;-69
2022/03/18 11:27:56;;;;;;;3.72;3.25;;;17.40;45.30;;;;;;5015685;28;20196;-69
2022/03/18 11:30:33;;;;;;;3.10;2.85;;;18.40;45.60;;;;;;5001282;28;20186;-70
2022/03/18 11:33:11;;;;;;;3.28;3.08;;;19.30;43.60;;;;;;5005065;28;20239;-69
2022/03/18 11:35:49;;;;;;;3.00;2.85;;;19.70;42.10;;;;;;5007278;28;20185;-70
2022/03/18 11:38:23;;;;;;;3.75;3.25;;;19.50;41.30;;;;;;5009403;28;20240;-69
2022/03/18 11:40:58;;;;;;;4.05;3.60;;;19.00;40.90;;;;;;5009829;28;20286;-71
2022/03/18 11:43:39;;;;;;;3.47;3.22;;;18.10;41.10;;;;;;5004036;28;20234;-69
2022/03/18 11:46:16;;;;;;;3.55;3.33;;;16.90;42.00;;;;;;4996978;28;20611;-69
2022/03/18 11:48:44;;;;;;;3.17;3.08;;;16.50;43.10;;;;;;5004266;28;20282;-69
2022/03/18 11:51:26;;;;;;;3.03;2.90;;;16.80;44.20;;;;;;5005292;28;20184;-69
2022/03/18 11:53:54;;;;;;;3.22;2.97;;;17.30;44.60;;;;;;5002511;28;20208;-69
2022/03/18 11:56:23;;;;;;;2.78;2.67;;;18.00;44.00;;;;;;5006127;28;20223;-69
2022/03/18 11:58:50;;;;;;;4.00;3.10;;;18.60;43.40;;;;;;5007342;28;20184;-72
2022/03/18 12:01:38;;;;;;;3.03;2.88;;;18.90;42.10;;;;;;5005377;28;20177;-70
2022/03/18 12:04:06;;;;;;;2.90;2.78;;;19.20;41.40;;;;;;5003368;28;20192;-69
2022/03/18 12:06:32;;;;;;;3.22;3.10;;;19.80;41.70;;;;;;5001448;28;20223;-70
2022/03/18 12:08:59;;;;;;;2.97;2.78;;;20.30;40.50;;;;;;5009537;28;20666;-70
2022/03/18 12:11:35;;;;;;;3.33;2.95;;;20.70;40.30;;;;;;5010922;28;20181;-70
2022/03/18 12:14:01;;;;;;;2.90;2.80;;;21.00;41.70;;;;;;5013893;28;20674;-70
2022/03/18 12:16:27;;;;;;;4.13;3.42;;;20.90;39.70;;;;;;5012964;28;20211;-70
2022/03/18 12:19:08;;;;;;;3.33;3.13;;;21.20;40.60;;;;;;5017961;28;20188;-70
2022/03/18 12:21:44;;;;;;;2.92;2.78;;;21.50;39.00;;;;;;5012568;28;20184;-70
2022/03/18 12:24:13;;;;;;;2.67;2.67;;;21.70;38.90;;;;;;5011113;28;20176;-70
2022/03/18 12:26:39;;;;;;;3.08;2.88;;;21.80;39.10;;;;;;5006656;28;20260;-70
2022/03/18 12:29:05;;;;;;;3.38;3.17;;;21.90;39.50;;;;;;5011029;28;20208;-69
2022/03/18 12:31:31;;;;;;;2.65;2.55;;;21.90;38.50;;;;;;5012672;28;20180;-69
2022/03/18 12:33:59;;;;;;;2.58;2.47;;;22.00;38.50;;;;;;5007471;28;20565;-69
2022/03/18 12:36:27;;;;;;;5.03;3.05;;;22.10;38.50;;;;;;5009349;28;20180;-70
2022/03/18 12:39:08;;;;;;;3.03;2.92;;;21.80;38.00;;;;;;5008737;28;20570;-69
2022/03/18 12:41:33;;;;;;;2.83;2.72;;;21.70;38.10;;;;;;5008957;28;21049;-69
2022/03/18 12:43:59;;;;;;;2.92;2.83;;;21.60;37.70;;;;;;5007446;28;20185;-70
2022/03/18 12:46:27;;;;;;;3.17;3.08;;;21.70;37.90;;;;;;5005089;28;20197;-69
2022/03/18 12:48:53;;;;;;;2.60;2.50;;;21.80;37.00;;;;;;5008238;28;20188;-69
2022/03/18 12:51:19;;;;;;;3.05;2.95;;;21.90;37.20;;;;;;5006567;28;20216;-69
2022/03/18 12:53:46;;;;;;;3.53;3.22;;;21.40;38.70;;;;;;5007805;28;20264;-69
2022/03/18 12:56:16;;;;;;;3.40;3.30;;;20.80;37.00;;;;;;5008400;28;20168;-68
2022/03/18 12:58:44;;;;;;;3.20;3.00;;;19.50;37.80;;;;;;5009463;28;20216;-73
2022/03/18 13:01:13;;;;;;;3.60;3.30;;;18.90;39.40;;;;;;4993708;28;20183;-71
2022/03/18 13:03:50;;;;;;;3.78;2.72;;;18.90;41.30;;;;;;4998303;28;21006;-73
2022/03/18 13:06:19;;;;;;;3.15;2.90;;;18.90;40.50;;;;;;4999527;28;20323;-73
2022/03/18 13:08:54;;;;;;;2.88;2.78;;;19.00;40.10;;;;;;5003219;28;20279;-69
2022/03/18 13:11:21;;;;;;;3.22;2.90;;;19.00;39.50;;;;;;5003258;28;20231;-68
2022/03/18 13:13:50;;;;;;;3.40;3.20;;;19.10;39.20;;;;;;5003006;28;20199;-69
2022/03/18 13:16:17;;;;;;;3.33;3.20;;;19.20;39.50;;;;;;5004057;28;20794;-68
2022/03/18 13:18:56;;;;;;;2.90;2.70;;;19.20;39.30;;;;;;5003754;28;20209;-70